sensor_id;sensor_type;location;lat;lon;timestamp;pressure;altitude;pressure_sealevel;temperature;humidity
64243;BME280;50573;51.512;5.386;2023-01-15T00:08:48;99658.38;;;7.31;95.02
64243;BME280;50573;51.512;5.386;2023-01-15T00:18:52;99658.38;;;7.31;99.09
64243;BME280;50573;51.512;5.386;2023-01-15T00:28:56;99648.44;;;7.28;98.90
64243;BME280;50573;51.512;5.386;2023-01-15T00:39:00;99651.81;;;7.20;97.66
64243;BME280;50573;51.512;5.386;2023-01-15T00:49:04;99677.03;;;7.17;95.79
64243;BME280;50573;51.512;5.386;2023-01-15T00:59:08;99685.31;;;7.13;93.89
64243;BME280;50573;51.512;5.386;2023-01-15T01:09:14;99686.28;;;7.07;93.67
64243;BME280;50573;51.512;5.386;2023-01-15T01:19:19;99691.03;;;7.02;94.29
64243;BME280;50573;51.512;5.386;2023-01-15T01:29:24;99679.88;;;7.00;92.98
64243;BME280;50573;51.512;5.386;2023-01-15T01:39:27;99677.50;;;7.02;93.65
64243;BME280;50573;51.512;5.386;2023-01-15T01:49:32;99693.75;;;7.02;92.52
64243;BME280;50573;51.512;5.386;2023-01-15T01:59:37;99679.16;;;7.00;92.05
64243;BME280;50573;51.512;5.386;2023-01-15T02:09:42;99690.72;;;7.00;92.06
64243;BME280;50573;51.512;5.386;2023-01-15T02:19:49;99699.72;;;6.97;91.35
64243;BME280;50573;51.512;5.386;2023-01-15T02:30:03;99678.94;;;6.94;91.45
64243;BME280;50573;51.512;5.386;2023-01-15T02:40:17;99665.16;;;6.89;90.30
64243;BME280;50573;51.512;5.386;2023-01-15T02:50:29;99655.75;;;6.81;90.58
64243;BME280;50573;51.512;5.386;2023-01-15T03:00:38;99653.19;;;6.77;90.47
64243;BME280;50573;51.512;5.386;2023-01-15T03:10:47;99654.78;;;6.75;88.83
64243;BME280;50573;51.512;5.386;2023-01-15T03:20:53;99670.25;;;6.74;89.42
64243;BME280;50573;51.512;5.386;2023-01-15T03:31:02;99658.59;;;6.77;89.03
64243;BME280;50573;51.512;5.386;2023-01-15T03:41:08;99655.66;;;6.72;89.03
64243;BME280;50573;51.512;5.386;2023-01-15T03:51:19;99670.25;;;6.74;88.35
64243;BME280;50573;51.512;5.386;2023-01-15T04:01:27;99659.56;;;6.71;87.68
64243;BME280;50573;51.512;5.386;2023-01-15T04:11:36;99660.09;;;6.78;87.91
64243;BME280;50573;51.512;5.386;2023-01-15T04:21:41;99661.28;;;6.65;87.68
64243;BME280;50573;51.512;5.386;2023-01-15T04:31:45;99650.91;;;6.51;88.12
64243;BME280;50573;51.512;5.386;2023-01-15T04:41:48;99671.78;;;6.38;89.53
64243;BME280;50573;51.512;5.386;2023-01-15T04:52:10;99678.16;;;6.44;89.46
64243;BME280;50573;51.512;5.386;2023-01-15T05:02:13;99673.50;;;6.44;89.01
64243;BME280;50573;51.512;5.386;2023-01-15T05:12:18;99683.56;;;6.44;88.43
64243;BME280;50573;51.512;5.386;2023-01-15T05:22:21;99673.06;;;6.46;88.72
64243;BME280;50573;51.512;5.386;2023-01-15T05:32:25;99656.84;;;6.46;87.64
64243;BME280;50573;51.512;5.386;2023-01-15T05:42:28;99662.25;;;6.46;87.29
64243;BME280;50573;51.512;5.386;2023-01-15T05:52:32;99644.53;;;6.45;88.61
64243;BME280;50573;51.512;5.386;2023-01-15T06:02:35;99644.63;;;6.54;89.80
64243;BME280;50573;51.512;5.386;2023-01-15T06:12:40;99657.41;;;6.66;90.10
64243;BME280;50573;51.512;5.386;2023-01-15T06:22:43;99682.28;;;6.61;90.18
64243;BME280;50573;51.512;5.386;2023-01-15T06:32:47;99682.81;;;6.43;90.83
64243;BME280;50573;51.512;5.386;2023-01-15T06:42:51;99680.59;;;6.26;89.82
64243;BME280;50573;51.512;5.386;2023-01-15T06:53:13;99680.81;;;6.19;88.36
64243;BME280;50573;51.512;5.386;2023-01-15T07:03:16;99682.84;;;6.02;89.51
64243;BME280;50573;51.512;5.386;2023-01-15T07:13:20;99693.72;;;5.99;89.59
64243;BME280;50573;51.512;5.386;2023-01-15T07:23:24;99701.19;;;5.95;90.18
64243;BME280;50573;51.512;5.386;2023-01-15T07:33:29;99712.50;;;6.18;87.67
64243;BME280;50573;51.512;5.386;2023-01-15T07:43:32;99728.63;;;6.22;86.47
64243;BME280;50573;51.512;5.386;2023-01-15T07:53:54;99732.75;;;6.26;85.44
64243;BME280;50573;51.512;5.386;2023-01-15T08:03:57;99735.31;;;6.17;85.32
64243;BME280;50573;51.512;5.386;2023-01-15T08:14:02;99741.09;;;6.03;85.26
64243;BME280;50573;51.512;5.386;2023-01-15T08:24:22;99750.88;;;5.85;85.05
64243;BME280;50573;51.512;5.386;2023-01-15T08:34:27;99744.97;;;5.74;86.20
64243;BME280;50573;51.512;5.386;2023-01-15T08:44:30;99753.16;;;5.70;86.61
64243;BME280;50573;51.512;5.386;2023-01-15T08:54:35;99739.22;;;5.72;86.86
64243;BME280;50573;51.512;5.386;2023-01-15T09:04:38;99718.59;;;5.78;86.84
64243;BME280;50573;51.512;5.386;2023-01-15T09:14:42;99719.00;;;5.92;87.18
64243;BME280;50573;51.512;5.386;2023-01-15T09:25:04;99729.03;;;6.08;86.96
64243;BME280;50573;51.512;5.386;2023-01-15T09:35:09;99726.28;;;6.36;84.98
64243;BME280;50573;51.512;5.386;2023-01-15T09:45:21;99735.63;;;6.60;84.24
64243;BME280;50573;51.512;5.386;2023-01-15T09:55:29;99738.00;;;6.58;82.59
64243;BME280;50573;51.512;5.386;2023-01-15T10:05:36;99753.84;;;6.72;82.07
64243;BME280;50573;51.512;5.386;2023-01-15T10:15:45;99762.94;;;6.78;80.51
64243;BME280;50573;51.512;5.386;2023-01-15T10:25:50;99771.41;;;6.93;80.96
64243;BME280;50573;51.512;5.386;2023-01-15T10:35:55;99757.97;;;7.02;79.81
64243;BME280;50573;51.512;5.386;2023-01-15T10:46:00;99764.69;;;7.23;79.78
64243;BME280;50573;51.512;5.386;2023-01-15T10:56:12;99754.47;;;7.52;77.81
64243;BME280;50573;51.512;5.386;2023-01-15T11:06:21;99743.75;;;7.48;77.05
64243;BME280;50573;51.512;5.386;2023-01-15T11:16:26;99759.03;;;7.42;77.66
64243;BME280;50573;51.512;5.386;2023-01-15T11:26:47;99769.16;;;7.76;77.46
64243;BME280;50573;51.512;5.386;2023-01-15T11:37:02;99756.81;;;7.75;77.77
64243;BME280;50573;51.512;5.386;2023-01-15T11:47:09;99783.53;;;7.85;77.23
64243;BME280;50573;51.512;5.386;2023-01-15T11:57:32;99767.34;;;7.94;76.32
64243;BME280;50573;51.512;5.386;2023-01-15T12:07:38;99751.53;;;7.93;75.29
64243;BME280;50573;51.512;5.386;2023-01-15T12:17:54;99765.78;;;7.84;76.25
64243;BME280;50573;51.512;5.386;2023-01-15T12:28:05;99754.94;;;7.72;77.19
64243;BME280;50573;51.512;5.386;2023-01-15T12:38:21;99738.56;;;7.75;77.69
64243;BME280;50573;51.512;5.386;2023-01-15T12:48:32;99758.34;;;7.97;77.08
64243;BME280;50573;51.512;5.386;2023-01-15T12:58:43;99760.47;;;7.81;77.58
64243;BME280;50573;51.512;5.386;2023-01-15T13:08:55;99744.31;;;7.77;76.96
64243;BME280;50573;51.512;5.386;2023-01-15T13:19:22;99749.50;;;7.84;76.98
64243;BME280;50573;51.512;5.386;2023-01-15T13:29:38;99748.84;;;7.80;77.16
64243;BME280;50573;51.512;5.386;2023-01-15T13:39:48;99745.25;;;8.17;76.13
64243;BME280;50573;51.512;5.386;2023-01-15T13:49:54;99760.25;;;8.09;75.49
64243;BME280;50573;51.512;5.386;2023-01-15T14:00:04;99767.94;;;7.89;75.75
64243;BME280;50573;51.512;5.386;2023-01-15T14:10:35;99757.47;;;8.00;75.67
64243;BME280;50573;51.512;5.386;2023-01-15T14:20:52;99758.91;;;7.92;76.00
64243;BME280;50573;51.512;5.386;2023-01-15T14:31:14;99783.00;;;7.90;77.04
64243;BME280;50573;51.512;5.386;2023-01-15T14:41:27;99766.25;;;7.58;78.35
64243;BME280;50573;51.512;5.386;2023-01-15T14:51:32;99778.31;;;7.57;78.88
64243;BME280;50573;51.512;5.386;2023-01-15T15:01:42;99778.53;;;7.50;78.57
64243;BME280;50573;51.512;5.386;2023-01-15T15:11:47;99791.22;;;7.40;79.53
64243;BME280;50573;51.512;5.386;2023-01-15T15:22:12;99801.94;;;7.31;80.57
64243;BME280;50573;51.512;5.386;2023-01-15T15:32:19;99810.06;;;7.06;81.61
64243;BME280;50573;51.512;5.386;2023-01-15T15:42:27;99829.31;;;6.95;82.07
64243;BME280;50573;51.512;5.386;2023-01-15T15:52:50;99836.47;;;7.02;83.20
64243;BME280;50573;51.512;5.386;2023-01-15T16:02:54;99825.09;;;7.07;83.03
64243;BME280;50573;51.512;5.386;2023-01-15T16:13:00;99825.34;;;7.00;82.82
64243;BME280;50573;51.512;5.386;2023-01-15T16:23:20;99830.41;;;6.98;83.42
64243;BME280;50573;51.512;5.386;2023-01-15T16:33:23;99834.72;;;6.83;83.71
64243;BME280;50573;51.512;5.386;2023-01-15T16:43:28;99840.47;;;6.85;84.14
64243;BME280;50573;51.512;5.386;2023-01-15T16:53:37;99839.47;;;6.79;83.73
64243;BME280;50573;51.512;5.386;2023-01-15T17:03:42;99847.41;;;6.57;84.47
64243;BME280;50573;51.512;5.386;2023-01-15T17:13:45;99837.94;;;6.37;85.76
64243;BME280;50573;51.512;5.386;2023-01-15T17:23:50;99843.38;;;6.21;85.90
64243;BME280;50573;51.512;5.386;2023-01-15T17:33:53;99834.41;;;6.24;86.25
64243;BME280;50573;51.512;5.386;2023-01-15T17:43:58;99846.47;;;6.19;86.22
64243;BME280;50573;51.512;5.386;2023-01-15T17:54:01;99851.34;;;5.96;86.37
64243;BME280;50573;51.512;5.386;2023-01-15T18:04:14;99843.06;;;5.71;87.46
64243;BME280;50573;51.512;5.386;2023-01-15T18:14:36;99842.78;;;5.49;88.59
64243;BME280;50573;51.512;5.386;2023-01-15T18:24:40;99828.50;;;5.32;89.00
64243;BME280;50573;51.512;5.386;2023-01-15T18:34:43;99826.56;;;5.33;89.06
64243;BME280;50573;51.512;5.386;2023-01-15T18:44:47;99814.34;;;5.28;89.69
64243;BME280;50573;51.512;5.386;2023-01-15T18:55:08;99827.66;;;5.35;90.46
64243;BME280;50573;51.512;5.386;2023-01-15T19:05:13;99793.31;;;5.36;90.51
64243;BME280;50573;51.512;5.386;2023-01-15T19:15:18;99786.72;;;5.21;90.99
64243;BME280;50573;51.512;5.386;2023-01-15T19:25:42;99772.81;;;5.22;92.48
64243;BME280;50573;51.512;5.386;2023-01-15T19:35:46;99754.94;;;5.28;94.11
64243;BME280;50573;51.512;5.386;2023-01-15T19:45:50;99734.94;;;5.26;95.81
64243;BME280;50573;51.512;5.386;2023-01-15T19:56:10;99708.09;;;5.19;96.76
64243;BME280;50573;51.512;5.386;2023-01-15T20:06:15;99704.38;;;5.29;96.15
64243;BME280;50573;51.512;5.386;2023-01-15T20:16:20;99695.19;;;5.42;94.78
64243;BME280;50573;51.512;5.386;2023-01-15T20:26:24;99661.16;;;5.45;93.66
64243;BME280;50573;51.512;5.386;2023-01-15T20:36:28;99660.56;;;5.53;92.31
64243;BME280;50573;51.512;5.386;2023-01-15T20:46:36;99639.66;;;5.57;91.54
64243;BME280;50573;51.512;5.386;2023-01-15T20:56:39;99612.47;;;5.48;91.96
64243;BME280;50573;51.512;5.386;2023-01-15T21:06:44;99601.50;;;5.55;92.11
64243;BME280;50573;51.512;5.386;2023-01-15T21:16:47;99586.56;;;5.51;92.66
64243;BME280;50573;51.512;5.386;2023-01-15T21:26:53;99562.72;;;5.49;93.03
64243;BME280;50573;51.512;5.386;2023-01-15T21:36:56;99550.09;;;5.72;91.75
64243;BME280;50573;51.512;5.386;2023-01-15T21:47:02;99530.59;;;5.93;90.88
64243;BME280;50573;51.512;5.386;2023-01-15T21:57:06;99525.63;;;6.04;89.89
64243;BME280;50573;51.512;5.386;2023-01-15T22:07:12;99504.78;;;6.04;89.48
64243;BME280;50573;51.512;5.386;2023-01-15T22:17:15;99484.75;;;6.02;91.95
64243;BME280;50573;51.512;5.386;2023-01-15T22:27:19;99467.34;;;5.90;94.54
64243;BME280;50573;51.512;5.386;2023-01-15T22:37:22;99455.66;;;5.68;97.85
64243;BME280;50573;51.512;5.386;2023-01-15T22:47:28;99454.25;;;5.51;100.00
64243;BME280;50573;51.512;5.386;2023-01-15T22:57:31;99447.84;;;5.32;100.00
64243;BME280;50573;51.512;5.386;2023-01-15T23:07:36;99443.59;;;5.19;100.00
64243;BME280;50573;51.512;5.386;2023-01-15T23:17:42;99433.22;;;5.17;100.00
64243;BME280;50573;51.512;5.386;2023-01-15T23:27:46;99435.81;;;5.08;100.00
64243;BME280;50573;51.512;5.386;2023-01-15T23:37:49;99423.47;;;4.95;100.00
64243;BME280;50573;51.512;5.386;2023-01-15T23:47:54;99397.25;;;4.95;100.00
64243;BME280;50573;51.512;5.386;2023-01-15T23:57:57;99372.38;;;4.75;100.00
